Список аэропортов
Фактическая погода:

23 апреля, 12:30
Температура: +11°C (+8.5*)
Ветер: западный 6 м/с
Давление: *752 мм
разорв. обл.
1290 м
Время (МСК)Темп. СВетерВлажностьДавлениеОблачностьОсадки
09:00+5ЮЗ, 6 м/с81%1002 гПаоблачно
10:00+7ЮЗ, 6 м/с69%1003 гПас прояснениями
11:00+9ЮЗ, 7 м/с62%1003 гПамалооблачно
12:00+10ЮЗ, 7 м/с55%1004 гПаясно
13:00+10ЮЗ, 8 м/с48%1005 гПаясно
14:00+10ЮЗ, 8 м/с46%1005 гПамалооблачно
15:00+10ЮЗ, 8 м/с43%1005 гПаясно
16:00+10ЮЗ, 8 м/с42%1006 гПаясно
17:00+10ЮЗ, 7 м/с42%1006 гПаясно
18:00+9ЮЗ, 5 м/с43%1007 гПаясно
19:00+6ЮЗ, 3 м/с53%1008 гПаясно
20:00+4Ю, 2 м/с65%1008 гПамалооблачно
21:00+2ЮВ, 2 м/с75%1008 гПас прояснениями
22:00+2Ю, 2 м/с79%1008 гПас прояснениями
23:00+1ЮВ, 3 м/с84%1009 гПаоблачно
24 апреля
00:00+1ЮВ, 2 м/с92%1009 гПаоблачно
01:000ЮВ, 3 м/с95%1009 гПаоблачно
02:00+1ЮВ, 2 м/с93%1008 гПаоблачно
03:00+1ЮВ, 3 м/с91%1008 гПаоблачносл. дождь
04:00+2ЮВ, 2 м/с86%1008 гПаоблачносл. дождь
05:00+2В, 2 м/с80%1008 гПаоблачносл. дождь
06:00+3В, 3 м/с76%1007 гПаоблачнодождь
07:00+5В, 4 м/с65%1006 гПаоблачнодождь
08:00+5В, 7 м/с68%1005 гПаоблачнодождь
09:00+5В, 7 м/с75%1004 гПаоблачнодождь
10:00+5СВ, 7 м/с77%1004 гПаоблачнодождь
11:00+5СВ, 9 м/с80%1001 гПаоблачнодождь
12:00+6СВ, 8 м/с81%1000 гПаоблачнодождь
13:00+6СВ, 8 м/с82%998 гПаоблачнодождь
14:00+7СВ, 6 м/с85%998 гПаоблачнодождь
15:00+7СВ, 6 м/с86%997 гПаоблачнодождь
16:00+7СВ, 7 м/с89%996 гПаоблачнодождь
17:00+7СВ, 6 м/с90%995 гПаоблачнодождь
18:00+6СВ, 6 м/с92%995 гПаоблачнодождь
19:00+6С, 6 м/с94%995 гПаоблачнодождь
20:00+5С, 6 м/с94%995 гПаоблачнодождь
21:00+4СЗ, 6 м/с95%996 гПаоблачносл. дождь
22:00+3СЗ, 6 м/с93%997 гПаоблачнодождь
23:00+3СЗ, 6 м/с91%997 гПаоблачносл. дождь
25 апреля
00:00+2З, 6 м/с92%998 гПаоблачно
01:00+2З, 6 м/с91%999 гПаоблачно
02:00+3З, 6 м/с90%1000 гПаоблачно
03:00+3З, 6 м/с87%1002 гПаоблачно
04:00+3З, 6 м/с87%1002 гПаоблачно
05:00+3З, 5 м/с88%1003 гПамалооблачно
06:00+3З, 6 м/с86%1004 гПаясно
07:00+4З, 6 м/с78%1005 гПаясно
08:00+6З, 6 м/с73%1006 гПамалооблачно
09:00+8З, 7 м/с68%1007 гПас прояснениями